sensor_id;sensor_type;location;lat;lon;timestamp;temperature;humidity
6379;DHT22;3222;48.858;10.128;2023-02-01T03:56:31;2.40;99.90
6379;DHT22;3222;48.858;10.128;2023-02-01T03:58:59;2.40;99.90
6379;DHT22;3222;48.858;10.128;2023-02-01T04:01:29;2.40;99.90
6379;DHT22;3222;48.858;10.128;2023-02-01T04:03:56;2.40;99.90
6379;DHT22;3222;48.858;10.128;2023-02-01T04:06:22;2.40;99.90
6379;DHT22;3222;48.858;10.128;2023-02-01T04:08:47;2.40;99.90
6379;DHT22;3222;48.858;10.128;2023-02-01T04:11:13;2.40;99.90
6379;DHT22;3222;48.858;10.128;2023-02-01T04:13:39;2.40;99.90
6379;DHT22;3222;48.858;10.128;2023-02-01T04:16:05;2.40;99.90
6379;DHT22;3222;48.858;10.128;2023-02-01T04:18:31;2.40;99.90
6379;DHT22;3222;48.858;10.128;2023-02-01T04:20:56;2.40;99.90
6379;DHT22;3222;48.858;10.128;2023-02-01T04:23:22;2.40;99.90
6379;DHT22;3222;48.858;10.128;2023-02-01T04:25:47;2.50;99.90
6379;DHT22;3222;48.858;10.128;2023-02-01T04:28:13;2.50;99.90
6379;DHT22;3222;48.858;10.128;2023-02-01T04:30:39;2.50;99.90
6379;DHT22;3222;48.858;10.128;2023-02-01T04:33:04;2.50;99.90
6379;DHT22;3222;48.858;10.128;2023-02-01T04:35:34;2.40;99.90
6379;DHT22;3222;48.858;10.128;2023-02-01T04:37:59;2.40;99.90
6379;DHT22;3222;48.858;10.128;2023-02-01T04:40:25;2.50;99.90
6379;DHT22;3222;48.858;10.128;2023-02-01T04:42:51;2.50;99.90
6379;DHT22;3222;48.858;10.128;2023-02-01T04:45:16;2.50;99.90
6379;DHT22;3222;48.858;10.128;2023-02-01T04:47:42;2.50;99.90
6379;DHT22;3222;48.858;10.128;2023-02-01T04:50:08;2.50;99.90
6379;DHT22;3222;48.858;10.128;2023-02-01T04:52:37;2.50;99.90
6379;DHT22;3222;48.858;10.128;2023-02-01T04:55:04;2.50;99.90
6379;DHT22;3222;48.858;10.128;2023-02-01T04:57:29;2.50;99.90
6379;DHT22;3222;48.858;10.128;2023-02-01T04:59:55;2.50;99.90
6379;DHT22;3222;48.858;10.128;2023-02-01T05:02:21;2.50;99.90
6379;DHT22;3222;48.858;10.128;2023-02-01T05:04:46;2.40;99.90
6379;DHT22;3222;48.858;10.128;2023-02-01T05:07:12;2.40;99.90
6379;DHT22;3222;48.858;10.128;2023-02-01T05:09:38;2.50;99.90
6379;DHT22;3222;48.858;10.128;2023-02-01T05:12:04;2.50;99.90
6379;DHT22;3222;48.858;10.128;2023-02-01T05:14:48;2.50;99.90
6379;DHT22;3222;48.858;10.128;2023-02-01T05:17:14;2.50;99.90
6379;DHT22;3222;48.858;10.128;2023-02-01T05:19:40;2.50;99.90
6379;DHT22;3222;48.858;10.128;2023-02-01T05:22:05;2.50;99.90
6379;DHT22;3222;48.858;10.128;2023-02-01T05:24:31;2.50;99.90
6379;DHT22;3222;48.858;10.128;2023-02-01T05:26:57;2.50;99.90
6379;DHT22;3222;48.858;10.128;2023-02-01T05:29:22;2.50;99.90
6379;DHT22;3222;48.858;10.128;2023-02-01T05:31:48;2.50;99.90
6379;DHT22;3222;48.858;10.128;2023-02-01T05:34:15;2.50;99.90
6379;DHT22;3222;48.858;10.128;2023-02-01T05:36:41;2.50;99.90
6379;DHT22;3222;48.858;10.128;2023-02-01T05:39:06;2.50;99.90
6379;DHT22;3222;48.858;10.128;2023-02-01T05:41:32;2.50;99.90
6379;DHT22;3222;48.858;10.128;2023-02-01T05:43:58;2.50;99.90
6379;DHT22;3222;48.858;10.128;2023-02-01T05:46:24;2.50;99.90
6379;DHT22;3222;48.858;10.128;2023-02-01T05:48:50;2.50;99.90
6379;DHT22;3222;48.858;10.128;2023-02-01T05:51:16;2.50;99.90
6379;DHT22;3222;48.858;10.128;2023-02-01T05:53:41;2.60;99.90
6379;DHT22;3222;48.858;10.128;2023-02-01T05:56:07;2.50;99.90
6379;DHT22;3222;48.858;10.128;2023-02-01T05:58:33;2.60;99.90
6379;DHT22;3222;48.858;10.128;2023-02-01T06:00:59;2.60;99.90
6379;DHT22;3222;48.858;10.128;2023-02-01T06:03:26;2.60;99.90
6379;DHT22;3222;48.858;10.128;2023-02-01T06:05:51;2.60;99.90
6379;DHT22;3222;48.858;10.128;2023-02-01T06:08:17;2.60;99.90
6379;DHT22;3222;48.858;10.128;2023-02-01T06:10:43;2.60;99.90
6379;DHT22;3222;48.858;10.128;2023-02-01T06:13:08;2.60;99.90
6379;DHT22;3222;48.858;10.128;2023-02-01T06:15:34;2.50;99.90
6379;DHT22;3222;48.858;10.128;2023-02-01T06:18:00;2.60;99.90
6379;DHT22;3222;48.858;10.128;2023-02-01T06:20:25;2.60;99.90
6379;DHT22;3222;48.858;10.128;2023-02-01T06:22:51;2.50;99.90
6379;DHT22;3222;48.858;10.128;2023-02-01T06:25:18;2.60;99.90
6379;DHT22;3222;48.858;10.128;2023-02-01T06:27:44;2.60;99.90
6379;DHT22;3222;48.858;10.128;2023-02-01T06:30:11;2.60;99.90
6379;DHT22;3222;48.858;10.128;2023-02-01T06:32:39;2.60;99.90
6379;DHT22;3222;48.858;10.128;2023-02-01T06:35:07;2.60;99.90
6379;DHT22;3222;48.858;10.128;2023-02-01T06:37:33;2.60;99.90
6379;DHT22;3222;48.858;10.128;2023-02-01T06:40:01;2.60;99.90
6379;DHT22;3222;48.858;10.128;2023-02-01T06:42:27;2.60;99.90
6379;DHT22;3222;48.858;10.128;2023-02-01T06:44:52;2.60;99.90
6379;DHT22;3222;48.858;10.128;2023-02-01T06:47:18;2.60;99.90
6379;DHT22;3222;48.858;10.128;2023-02-01T06:49:43;2.60;99.90
6379;DHT22;3222;48.858;10.128;2023-02-01T06:52:09;2.60;99.90
6379;DHT22;3222;48.858;10.128;2023-02-01T06:54:35;2.60;99.90
6379;DHT22;3222;48.858;10.128;2023-02-01T06:57:03;2.60;99.90
6379;DHT22;3222;48.858;10.128;2023-02-01T06:59:28;2.60;99.90
6379;DHT22;3222;48.858;10.128;2023-02-01T07:01:54;2.60;99.90
6379;DHT22;3222;48.858;10.128;2023-02-01T07:04:20;2.60;99.90
6379;DHT22;3222;48.858;10.128;2023-02-01T07:06:45;2.60;99.90
6379;DHT22;3222;48.858;10.128;2023-02-01T07:09:11;2.60;99.90
6379;DHT22;3222;48.858;10.128;2023-02-01T07:11:37;2.60;99.90
6379;DHT22;3222;48.858;10.128;2023-02-01T07:14:06;2.60;99.90
6379;DHT22;3222;48.858;10.128;2023-02-01T07:16:32;2.60;99.90
6379;DHT22;3222;48.858;10.128;2023-02-01T07:18:57;2.60;99.90
6379;DHT22;3222;48.858;10.128;2023-02-01T07:21:25;2.60;99.90
6379;DHT22;3222;48.858;10.128;2023-02-01T07:23:50;2.60;99.90
6379;DHT22;3222;48.858;10.128;2023-02-01T07:26:16;2.60;99.90
6379;DHT22;3222;48.858;10.128;2023-02-01T07:28:42;2.60;99.90
6379;DHT22;3222;48.858;10.128;2023-02-01T07:31:10;2.60;99.90
6379;DHT22;3222;48.858;10.128;2023-02-01T07:33:36;2.60;99.90
6379;DHT22;3222;48.858;10.128;2023-02-01T07:36:04;2.60;99.90
6379;DHT22;3222;48.858;10.128;2023-02-01T07:38:30;2.60;99.90
6379;DHT22;3222;48.858;10.128;2023-02-01T07:41:03;2.60;99.90
6379;DHT22;3222;48.858;10.128;2023-02-01T07:43:30;2.60;99.90
6379;DHT22;3222;48.858;10.128;2023-02-01T07:45:56;2.60;99.90
6379;DHT22;3222;48.858;10.128;2023-02-01T07:48:24;2.60;99.90
6379;DHT22;3222;48.858;10.128;2023-02-01T07:51:03;2.60;99.90
6379;DHT22;3222;48.858;10.128;2023-02-01T07:53:31;2.60;99.90
6379;DHT22;3222;48.858;10.128;2023-02-01T07:55:57;2.60;99.90
6379;DHT22;3222;48.858;10.128;2023-02-01T07:58:23;2.60;99.90
6379;DHT22;3222;48.858;10.128;2023-02-01T08:00:49;2.60;99.90
6379;DHT22;3222;48.858;10.128;2023-02-01T08:03:34;2.60;99.90
6379;DHT22;3222;48.858;10.128;2023-02-01T09:21:42;2.70;99.90
6379;DHT22;3222;48.858;10.128;2023-02-01T09:24:10;2.70;99.90
6379;DHT22;3222;48.858;10.128;2023-02-01T09:26:37;2.70;99.90
6379;DHT22;3222;48.858;10.128;2023-02-01T09:29:03;2.70;99.90
6379;DHT22;3222;48.858;10.128;2023-02-01T09:31:31;2.70;99.90
6379;DHT22;3222;48.858;10.128;2023-02-01T09:33:57;2.70;99.90
6379;DHT22;3222;48.858;10.128;2023-02-01T09:36:23;2.70;99.90
6379;DHT22;3222;48.858;10.128;2023-02-01T09:38:49;2.70;99.90
6379;DHT22;3222;48.858;10.128;2023-02-01T09:46:32;2.70;99.90
6379;DHT22;3222;48.858;10.128;2023-02-01T09:49:03;2.70;99.90
6379;DHT22;3222;48.858;10.128;2023-02-01T09:51:36;2.70;99.90
6379;DHT22;3222;48.858;10.128;2023-02-01T09:54:24;2.70;99.90
6379;DHT22;3222;48.858;10.128;2023-02-01T09:57:07;2.80;99.90
6379;DHT22;3222;48.858;10.128;2023-02-01T09:59:35;2.80;99.90
6379;DHT22;3222;48.858;10.128;2023-02-01T10:02:08;2.80;99.90
6379;DHT22;3222;48.858;10.128;2023-02-01T10:04:36;2.80;99.90
6379;DHT22;3222;48.858;10.128;2023-02-01T10:07:21;2.70;99.90
6379;DHT22;3222;48.858;10.128;2023-02-01T10:10:04;2.80;99.90
6379;DHT22;3222;48.858;10.128;2023-02-01T10:23:57;2.70;99.90
6379;DHT22;3222;48.858;10.128;2023-02-01T10:26:03;2.80;99.90
6379;DHT22;3222;48.858;10.128;2023-02-01T10:28:33;2.80;99.90
6379;DHT22;3222;48.858;10.128;2023-02-01T10:31:02;2.80;99.90
6379;DHT22;3222;48.858;10.128;2023-02-01T10:33:35;2.80;99.90
6379;DHT22;3222;48.858;10.128;2023-02-01T10:38:33;2.80;99.90
6379;DHT22;3222;48.858;10.128;2023-02-01T10:41:08;2.80;99.90
6379;DHT22;3222;48.858;10.128;2023-02-01T10:43:37;2.90;99.90
6379;DHT22;3222;48.858;10.128;2023-02-01T10:46:04;2.80;99.90
6379;DHT22;3222;48.858;10.128;2023-02-01T10:48:31;2.80;99.90
6379;DHT22;3222;48.858;10.128;2023-02-01T10:53:36;2.80;99.90
6379;DHT22;3222;48.858;10.128;2023-02-01T10:56:12;2.80;99.90
6379;DHT22;3222;48.858;10.128;2023-02-01T10:58:46;2.80;99.90
6379;DHT22;3222;48.858;10.128;2023-02-01T11:01:30;2.80;99.90
6379;DHT22;3222;48.858;10.128;2023-02-01T11:03:58;2.80;99.90
6379;DHT22;3222;48.858;10.128;2023-02-01T11:06:32;2.90;99.90
6379;DHT22;3222;48.858;10.128;2023-02-01T11:09:22;2.90;99.90
6379;DHT22;3222;48.858;10.128;2023-02-01T11:14:16;2.80;99.90
6379;DHT22;3222;48.858;10.128;2023-02-01T11:16:48;2.80;99.90
6379;DHT22;3222;48.858;10.128;2023-02-01T11:19:15;2.90;99.90
6379;DHT22;3222;48.858;10.128;2023-02-01T11:21:43;2.90;99.90
6379;DHT22;3222;48.858;10.128;2023-02-01T11:24:24;2.90;99.90
6379;DHT22;3222;48.858;10.128;2023-02-01T11:26:50;2.90;99.90
6379;DHT22;3222;48.858;10.128;2023-02-01T11:29:19;2.90;99.90
6379;DHT22;3222;48.858;10.128;2023-02-01T11:31:48;2.90;99.90
6379;DHT22;3222;48.858;10.128;2023-02-01T11:34:16;2.80;99.90
6379;DHT22;3222;48.858;10.128;2023-02-01T11:36:44;2.90;99.90
6379;DHT22;3222;48.858;10.128;2023-02-01T11:39:23;2.90;99.90
6379;DHT22;3222;48.858;10.128;2023-02-01T11:42:11;2.90;99.90
6379;DHT22;3222;48.858;10.128;2023-02-01T11:44:42;2.90;99.90
6379;DHT22;3222;48.858;10.128;2023-02-01T11:47:24;2.90;99.90
6379;DHT22;3222;48.858;10.128;2023-02-01T11:49:55;2.90;99.90
6379;DHT22;3222;48.858;10.128;2023-02-01T11:55:47;2.90;99.90
6379;DHT22;3222;48.858;10.128;2023-02-01T12:01:30;2.90;99.90
6379;DHT22;3222;48.858;10.128;2023-02-01T12:07:17;3.00;99.90
6379;DHT22;3222;48.858;10.128;2023-02-01T12:12:24;3.00;99.90
6379;DHT22;3222;48.858;10.128;2023-02-01T12:15:53;3.00;99.90
6379;DHT22;3222;48.858;10.128;2023-02-01T12:23:22;2.90;99.90
6379;DHT22;3222;48.858;10.128;2023-02-01T12:37:40;3.00;99.90
6379;DHT22;3222;48.858;10.128;2023-02-01T12:40:42;3.00;99.90
6379;DHT22;3222;48.858;10.128;2023-02-01T12:43:13;2.90;99.90
6379;DHT22;3222;48.858;10.128;2023-02-01T12:46:04;3.00;99.90
6379;DHT22;3222;48.858;10.128;2023-02-01T12:48:38;3.00;99.90
6379;DHT22;3222;48.858;10.128;2023-02-01T12:51:15;2.90;99.90
6379;DHT22;3222;48.858;10.128;2023-02-01T12:56:31;3.00;99.90
6379;DHT22;3222;48.858;10.128;2023-02-01T12:59:05;3.00;99.90
6379;DHT22;3222;48.858;10.128;2023-02-01T13:01:44;3.00;99.90
6379;DHT22;3222;48.858;10.128;2023-02-01T13:06:52;3.10;99.90
6379;DHT22;3222;48.858;10.128;2023-02-01T13:11:46;3.00;99.90
6379;DHT22;3222;48.858;10.128;2023-02-01T13:16:52;3.00;99.90
6379;DHT22;3222;48.858;10.128;2023-02-01T13:19:29;3.10;99.90
6379;DHT22;3222;48.858;10.128;2023-02-01T13:22:29;3.10;99.90
6379;DHT22;3222;48.858;10.128;2023-02-01T13:25:02;3.00;99.90
6379;DHT22;3222;48.858;10.128;2023-02-01T13:27:36;3.00;99.90
6379;DHT22;3222;48.858;10.128;2023-02-01T13:38:44;3.00;99.90
6379;DHT22;3222;48.858;10.128;2023-02-01T13:41:24;3.00;99.90
6379;DHT22;3222;48.858;10.128;2023-02-01T13:43:56;3.00;99.90
6379;DHT22;3222;48.858;10.128;2023-02-01T13:46:23;2.90;99.90
6379;DHT22;3222;48.858;10.128;2023-02-01T13:48:55;3.00;99.90
6379;DHT22;3222;48.858;10.128;2023-02-01T13:51:43;3.10;99.90
6379;DHT22;3222;48.858;10.128;2023-02-01T13:54:34;3.00;99.90
6379;DHT22;3222;48.858;10.128;2023-02-01T13:57:03;3.10;99.90
6379;DHT22;3222;48.858;10.128;2023-02-01T14:07:41;3.00;99.90
6379;DHT22;3222;48.858;10.128;2023-02-01T14:15:39;3.10;99.90
6379;DHT22;3222;48.858;10.128;2023-02-01T14:24:02;3.10;99.90
6379;DHT22;3222;48.858;10.128;2023-02-01T14:26:45;3.00;99.90
6379;DHT22;3222;48.858;10.128;2023-02-01T14:32:00;3.00;99.90
6379;DHT22;3222;48.858;10.128;2023-02-01T14:37:11;3.00;99.90
6379;DHT22;3222;48.858;10.128;2023-02-01T14:39:57;3.00;99.90
6379;DHT22;3222;48.858;10.128;2023-02-01T15:04:06;3.00;99.90
6379;DHT22;3222;48.858;10.128;2023-02-01T15:06:56;3.00;99.90
6379;DHT22;3222;48.858;10.128;2023-02-01T15:09:28;3.00;99.90
6379;DHT22;3222;48.858;10.128;2023-02-01T15:12:04;3.00;99.90
6379;DHT22;3222;48.858;10.128;2023-02-01T15:14:37;3.10;99.90
6379;DHT22;3222;48.858;10.128;2023-02-01T15:17:17;3.10;99.90
6379;DHT22;3222;48.858;10.128;2023-02-01T15:19:59;3.10;99.90
6379;DHT22;3222;48.858;10.128;2023-02-01T15:22:26;3.10;99.90
6379;DHT22;3222;48.858;10.128;2023-02-01T15:24:53;3.10;99.90
6379;DHT22;3222;48.858;10.128;2023-02-01T15:27:20;3.00;99.90
6379;DHT22;3222;48.858;10.128;2023-02-01T15:29:46;3.00;99.90
6379;DHT22;3222;48.858;10.128;2023-02-01T15:32:30;3.00;99.90
6379;DHT22;3222;48.858;10.128;2023-02-01T15:34:57;3.00;99.90
6379;DHT22;3222;48.858;10.128;2023-02-01T15:37:23;3.00;99.90
6379;DHT22;3222;48.858;10.128;2023-02-01T15:42:33;3.00;99.90
6379;DHT22;3222;48.858;10.128;2023-02-01T15:44:59;3.00;99.90
6379;DHT22;3222;48.858;10.128;2023-02-01T15:47:27;3.00;99.90
6379;DHT22;3222;48.858;10.128;2023-02-01T15:49:58;3.00;99.90
6379;DHT22;3222;48.858;10.128;2023-02-01T15:52:34;3.00;99.90
6379;DHT22;3222;48.858;10.128;2023-02-01T15:55:03;3.00;99.90
6379;DHT22;3222;48.858;10.128;2023-02-01T15:57:34;3.00;99.90
6379;DHT22;3222;48.858;10.128;2023-02-01T16:00:17;3.00;99.90
6379;DHT22;3222;48.858;10.128;2023-02-01T16:02:57;3.00;99.90
6379;DHT22;3222;48.858;10.128;2023-02-01T16:05:37;3.00;99.90
6379;DHT22;3222;48.858;10.128;2023-02-01T16:08:21;2.90;99.90
6379;DHT22;3222;48.858;10.128;2023-02-01T16:10:49;3.00;99.90
6379;DHT22;3222;48.858;10.128;2023-02-01T16:13:16;3.00;99.90
6379;DHT22;3222;48.858;10.128;2023-02-01T16:15:42;3.00;99.90
6379;DHT22;3222;48.858;10.128;2023-02-01T16:18:09;3.00;99.90
6379;DHT22;3222;48.858;10.128;2023-02-01T16:20:36;3.00;99.90
6379;DHT22;3222;48.858;10.128;2023-02-01T16:23:03;3.00;99.90
6379;DHT22;3222;48.858;10.128;2023-02-01T16:25:29;3.00;99.90
6379;DHT22;3222;48.858;10.128;2023-02-01T16:27:55;3.00;99.90
6379;DHT22;3222;48.858;10.128;2023-02-01T16:30:20;3.00;99.90
6379;DHT22;3222;48.858;10.128;2023-02-01T16:32:56;3.00;99.90
6379;DHT22;3222;48.858;10.128;2023-02-01T16:35:27;3.10;99.90
6379;DHT22;3222;48.858;10.128;2023-02-01T16:37:53;3.10;99.90
6379;DHT22;3222;48.858;10.128;2023-02-01T16:40:20;3.00;99.90
6379;DHT22;3222;48.858;10.128;2023-02-01T16:42:50;3.10;99.90
6379;DHT22;3222;48.858;10.128;2023-02-01T16:45:16;3.10;99.90
6379;DHT22;3222;48.858;10.128;2023-02-01T16:47:48;3.00;99.90
6379;DHT22;3222;48.858;10.128;2023-02-01T16:50:22;3.00;99.90
6379;DHT22;3222;48.858;10.128;2023-02-01T16:52:48;3.00;99.90
6379;DHT22;3222;48.858;10.128;2023-02-01T16:55:19;3.00;99.90
6379;DHT22;3222;48.858;10.128;2023-02-01T16:57:46;3.00;99.90
6379;DHT22;3222;48.858;10.128;2023-02-01T17:00:13;3.00;99.90
6379;DHT22;3222;48.858;10.128;2023-02-01T17:02:41;3.00;99.90
6379;DHT22;3222;48.858;10.128;2023-02-01T17:05:08;3.00;99.90
6379;DHT22;3222;48.858;10.128;2023-02-01T17:07:33;3.00;99.90
6379;DHT22;3222;48.858;10.128;2023-02-01T17:09:59;3.00;99.90
6379;DHT22;3222;48.858;10.128;2023-02-01T17:12:28;3.10;99.90
6379;DHT22;3222;48.858;10.128;2023-02-01T17:14:56;3.10;99.90
6379;DHT22;3222;48.858;10.128;2023-02-01T17:17:23;3.10;99.90
6379;DHT22;3222;48.858;10.128;2023-02-01T17:19:52;3.00;99.90
6379;DHT22;3222;48.858;10.128;2023-02-01T17:22:20;3.00;99.90
6379;DHT22;3222;48.858;10.128;2023-02-01T17:24:46;3.00;99.90
6379;DHT22;3222;48.858;10.128;2023-02-01T17:27:12;3.10;99.90
6379;DHT22;3222;48.858;10.128;2023-02-01T17:29:39;3.00;99.90
6379;DHT22;3222;48.858;10.128;2023-02-01T17:32:13;3.00;99.90
6379;DHT22;3222;48.858;10.128;2023-02-01T17:34:40;3.10;99.90
6379;DHT22;3222;48.858;10.128;2023-02-01T17:37:33;3.10;99.90
6379;DHT22;3222;48.858;10.128;2023-02-01T17:40:00;3.10;99.90
6379;DHT22;3222;48.858;10.128;2023-02-01T17:42:27;3.20;99.90
6379;DHT22;3222;48.858;10.128;2023-02-01T17:44:57;3.10;99.90
6379;DHT22;3222;48.858;10.128;2023-02-01T17:47:23;3.10;99.90
6379;DHT22;3222;48.858;10.128;2023-02-01T17:49:49;3.00;99.90
6379;DHT22;3222;48.858;10.128;2023-02-01T17:52:22;3.00;99.90
6379;DHT22;3222;48.858;10.128;2023-02-01T17:54:48;3.10;99.90
6379;DHT22;3222;48.858;10.128;2023-02-01T17:57:16;3.10;99.90
6379;DHT22;3222;48.858;10.128;2023-02-01T17:59:42;3.10;99.90
6379;DHT22;3222;48.858;10.128;2023-02-01T18:02:20;3.10;99.90
6379;DHT22;3222;48.858;10.128;2023-02-01T18:04:46;3.10;99.90
6379;DHT22;3222;48.858;10.128;2023-02-01T18:07:11;3.10;99.90
6379;DHT22;3222;48.858;10.128;2023-02-01T18:09:37;3.10;99.90
6379;DHT22;3222;48.858;10.128;2023-02-01T18:12:04;3.10;99.90
6379;DHT22;3222;48.858;10.128;2023-02-01T18:14:30;3.10;99.90
6379;DHT22;3222;48.858;10.128;2023-02-01T18:16:56;3.10;99.90
6379;DHT22;3222;48.858;10.128;2023-02-01T18:19:22;3.10;99.90
6379;DHT22;3222;48.858;10.128;2023-02-01T18:21:48;3.10;99.90
6379;DHT22;3222;48.858;10.128;2023-02-01T18:24:15;3.10;99.90
6379;DHT22;3222;48.858;10.128;2023-02-01T18:26:42;3.00;99.90
6379;DHT22;3222;48.858;10.128;2023-02-01T18:29:08;3.10;99.90
6379;DHT22;3222;48.858;10.128;2023-02-01T18:31:38;3.10;99.90
6379;DHT22;3222;48.858;10.128;2023-02-01T18:34:08;3.10;99.90
6379;DHT22;3222;48.858;10.128;2023-02-01T18:36:34;3.10;99.90
6379;DHT22;3222;48.858;10.128;2023-02-01T18:39:00;3.00;99.90
6379;DHT22;3222;48.858;10.128;2023-02-01T18:41:25;3.00;99.90
6379;DHT22;3222;48.858;10.128;2023-02-01T18:43:51;3.00;99.90
6379;DHT22;3222;48.858;10.128;2023-02-01T18:46:17;3.10;99.90
6379;DHT22;3222;48.858;10.128;2023-02-01T18:48:44;3.10;99.90
6379;DHT22;3222;48.858;10.128;2023-02-01T18:51:16;3.10;99.90
6379;DHT22;3222;48.858;10.128;2023-02-01T18:53:45;3.10;99.90
6379;DHT22;3222;48.858;10.128;2023-02-01T18:56:12;3.10;99.90
6379;DHT22;3222;48.858;10.128;2023-02-01T18:58:39;3.10;99.90
6379;DHT22;3222;48.858;10.128;2023-02-01T19:01:08;3.10;99.90
6379;DHT22;3222;48.858;10.128;2023-02-01T19:03:35;3.10;99.90
6379;DHT22;3222;48.858;10.128;2023-02-01T19:06:00;3.00;99.90
6379;DHT22;3222;48.858;10.128;2023-02-01T19:08:26;3.10;99.90
6379;DHT22;3222;48.858;10.128;2023-02-01T19:10:53;3.10;99.90
6379;DHT22;3222;48.858;10.128;2023-02-01T19:13:19;3.10;99.90
6379;DHT22;3222;48.858;10.128;2023-02-01T19:15:47;3.10;99.90
6379;DHT22;3222;48.858;10.128;2023-02-01T19:18:13;3.10;99.90
6379;DHT22;3222;48.858;10.128;2023-02-01T19:20:45;3.00;99.90
6379;DHT22;3222;48.858;10.128;2023-02-01T19:23:12;3.10;99.90
6379;DHT22;3222;48.858;10.128;2023-02-01T19:25:42;3.10;99.90
6379;DHT22;3222;48.858;10.128;2023-02-01T19:28:08;3.10;99.90
6379;DHT22;3222;48.858;10.128;2023-02-01T19:30:34;3.10;99.90
6379;DHT22;3222;48.858;10.128;2023-02-01T19:33:00;3.10;99.90
6379;DHT22;3222;48.858;10.128;2023-02-01T19:35:28;3.10;99.90
6379;DHT22;3222;48.858;10.128;2023-02-01T19:37:54;3.10;99.90
6379;DHT22;3222;48.858;10.128;2023-02-01T19:40:21;3.10;99.90
6379;DHT22;3222;48.858;10.128;2023-02-01T19:42:48;3.10;99.90
6379;DHT22;3222;48.858;10.128;2023-02-01T19:45:14;3.00;99.90
6379;DHT22;3222;48.858;10.128;2023-02-01T19:47:40;3.10;99.90
6379;DHT22;3222;48.858;10.128;2023-02-01T19:50:07;3.10;99.90
6379;DHT22;3222;48.858;10.128;2023-02-01T19:52:34;3.10;99.90
6379;DHT22;3222;48.858;10.128;2023-02-01T19:55:00;3.10;99.90
6379;DHT22;3222;48.858;10.128;2023-02-01T19:57:27;3.10;99.90
6379;DHT22;3222;48.858;10.128;2023-02-01T19:59:53;3.10;99.90
6379;DHT22;3222;48.858;10.128;2023-02-01T20:02:19;3.00;99.90
6379;DHT22;3222;48.858;10.128;2023-02-01T20:04:44;3.00;99.90
6379;DHT22;3222;48.858;10.128;2023-02-01T20:07:10;3.00;99.90
6379;DHT22;3222;48.858;10.128;2023-02-01T20:09:38;3.10;99.90
6379;DHT22;3222;48.858;10.128;2023-02-01T20:12:04;3.10;99.90
6379;DHT22;3222;48.858;10.128;2023-02-01T20:14:30;3.10;99.90
6379;DHT22;3222;48.858;10.128;2023-02-01T20:16:56;3.10;99.90
6379;DHT22;3222;48.858;10.128;2023-02-01T20:19:22;3.10;99.90
6379;DHT22;3222;48.858;10.128;2023-02-01T20:21:48;3.10;99.90
6379;DHT22;3222;48.858;10.128;2023-02-01T20:24:15;3.10;99.90
6379;DHT22;3222;48.858;10.128;2023-02-01T20:26:43;3.10;99.90
6379;DHT22;3222;48.858;10.128;2023-02-01T20:29:09;3.10;99.90
6379;DHT22;3222;48.858;10.128;2023-02-01T20:31:35;3.10;99.90
6379;DHT22;3222;48.858;10.128;2023-02-01T20:34:01;3.10;99.90
6379;DHT22;3222;48.858;10.128;2023-02-01T20:36:29;3.10;99.90
6379;DHT22;3222;48.858;10.128;2023-02-01T20:38:56;3.10;99.90
6379;DHT22;3222;48.858;10.128;2023-02-01T20:41:22;3.10;99.90
6379;DHT22;3222;48.858;10.128;2023-02-01T20:43:48;3.10;99.90
6379;DHT22;3222;48.858;10.128;2023-02-01T20:46:14;3.10;99.90
6379;DHT22;3222;48.858;10.128;2023-02-01T20:48:44;3.10;99.90
6379;DHT22;3222;48.858;10.128;2023-02-01T20:51:12;3.10;99.90
6379;DHT22;3222;48.858;10.128;2023-02-01T20:53:38;3.10;99.90
6379;DHT22;3222;48.858;10.128;2023-02-01T20:56:05;3.10;99.90
6379;DHT22;3222;48.858;10.128;2023-02-01T20:58:31;3.10;99.90
6379;DHT22;3222;48.858;10.128;2023-02-01T21:00:56;3.10;99.90
6379;DHT22;3222;48.858;10.128;2023-02-01T21:03:22;3.10;99.90
6379;DHT22;3222;48.858;10.128;2023-02-01T21:05:51;3.10;99.90
6379;DHT22;3222;48.858;10.128;2023-02-01T21:08:18;3.10;99.90
6379;DHT22;3222;48.858;10.128;2023-02-01T21:11:03;3.20;99.90
6379;DHT22;3222;48.858;10.128;2023-02-01T21:13:32;3.10;99.90
6379;DHT22;3222;48.858;10.128;2023-02-01T21:16:01;3.10;99.90
6379;DHT22;3222;48.858;10.128;2023-02-01T21:20:55;3.10;99.90
6379;DHT22;3222;48.858;10.128;2023-02-01T21:23:21;3.10;99.90
6379;DHT22;3222;48.858;10.128;2023-02-01T21:25:46;3.10;99.90
6379;DHT22;3222;48.858;10.128;2023-02-01T21:28:12;3.10;99.90
6379;DHT22;3222;48.858;10.128;2023-02-01T21:30:39;3.10;99.90
6379;DHT22;3222;48.858;10.128;2023-02-01T21:33:05;3.10;99.90
6379;DHT22;3222;48.858;10.128;2023-02-01T21:35:32;3.10;99.90
6379;DHT22;3222;48.858;10.128;2023-02-01T21:37:57;3.10;99.90
6379;DHT22;3222;48.858;10.128;2023-02-01T21:40:23;3.10;99.90
6379;DHT22;3222;48.858;10.128;2023-02-01T21:42:49;3.10;99.90
6379;DHT22;3222;48.858;10.128;2023-02-01T21:45:15;3.00;99.90
6379;DHT22;3222;48.858;10.128;2023-02-01T21:47:42;3.10;99.90
6379;DHT22;3222;48.858;10.128;2023-02-01T21:50:18;3.10;99.90
6379;DHT22;3222;48.858;10.128;2023-02-01T21:52:45;3.10;99.90
6379;DHT22;3222;48.858;10.128;2023-02-01T21:55:11;3.10;99.90
6379;DHT22;3222;48.858;10.128;2023-02-01T21:57:38;3.10;99.90
6379;DHT22;3222;48.858;10.128;2023-02-01T22:00:05;3.10;99.90
6379;DHT22;3222;48.858;10.128;2023-02-01T22:02:33;3.10;99.90
6379;DHT22;3222;48.858;10.128;2023-02-01T22:05:00;3.10;99.90
6379;DHT22;3222;48.858;10.128;2023-02-01T22:07:26;3.10;99.90
6379;DHT22;3222;48.858;10.128;2023-02-01T22:09:52;3.10;99.90
6379;DHT22;3222;48.858;10.128;2023-02-01T22:12:18;3.10;99.90
6379;DHT22;3222;48.858;10.128;2023-02-01T22:14:43;3.10;99.90
6379;DHT22;3222;48.858;10.128;2023-02-01T22:17:11;3.10;99.90
6379;DHT22;3222;48.858;10.128;2023-02-01T22:19:40;3.10;99.90
6379;DHT22;3222;48.858;10.128;2023-02-01T22:22:06;3.10;99.90
6379;DHT22;3222;48.858;10.128;2023-02-01T22:24:32;3.10;99.90
6379;DHT22;3222;48.858;10.128;2023-02-01T22:27:00;3.10;99.90
6379;DHT22;3222;48.858;10.128;2023-02-01T22:29:26;3.10;99.90
6379;DHT22;3222;48.858;10.128;2023-02-01T22:31:52;3.10;99.90
6379;DHT22;3222;48.858;10.128;2023-02-01T22:34:18;3.10;99.90
6379;DHT22;3222;48.858;10.128;2023-02-01T22:36:45;3.10;99.90
6379;DHT22;3222;48.858;10.128;2023-02-01T22:39:13;3.10;99.90
6379;DHT22;3222;48.858;10.128;2023-02-01T22:41:38;3.10;99.90
6379;DHT22;3222;48.858;10.128;2023-02-01T22:44:05;3.10;99.90
6379;DHT22;3222;48.858;10.128;2023-02-01T22:46:30;3.10;99.90
6379;DHT22;3222;48.858;10.128;2023-02-01T22:48:56;3.10;99.90
6379;DHT22;3222;48.858;10.128;2023-02-01T22:51:26;3.10;99.90
6379;DHT22;3222;48.858;10.128;2023-02-01T22:53:52;3.10;99.90
6379;DHT22;3222;48.858;10.128;2023-02-01T22:56:23;3.10;99.90
6379;DHT22;3222;48.858;10.128;2023-02-01T22:58:53;3.10;99.90
6379;DHT22;3222;48.858;10.128;2023-02-01T23:01:19;3.10;99.90
6379;DHT22;3222;48.858;10.128;2023-02-01T23:03:44;3.10;99.90
6379;DHT22;3222;48.858;10.128;2023-02-01T23:06:10;3.10;99.90
6379;DHT22;3222;48.858;10.128;2023-02-01T23:08:36;3.10;99.90
6379;DHT22;3222;48.858;10.128;2023-02-01T23:11:06;3.10;99.90
6379;DHT22;3222;48.858;10.128;2023-02-01T23:13:32;3.10;99.90
6379;DHT22;3222;48.858;10.128;2023-02-01T23:16:02;3.10;99.90
6379;DHT22;3222;48.858;10.128;2023-02-01T23:18:28;3.10;99.90
6379;DHT22;3222;48.858;10.128;2023-02-01T23:20:53;3.10;99.90
6379;DHT22;3222;48.858;10.128;2023-02-01T23:23:19;3.20;99.90
6379;DHT22;3222;48.858;10.128;2023-02-01T23:25:49;3.10;99.90
6379;DHT22;3222;48.858;10.128;2023-02-01T23:28:15;3.10;99.90